Humidity-temperature Sensor

Selected Measurement Type: Relative Humidity

 
Relative Humidity [%]     6 entries per hour
Showing data from 12/22/2022 (00:00:00 Z) to 12/21/2022 (00:01:00 Z)
Previous Next [ Day | 3-Days | 7-Days ]
First Last
Prev [ Day | 3-Days | 7-Days ] Next
First Last

Start Time:     :
End Time:     :     
Time (in GMT) :00 :50 :40 :30 :20 :10
Previous Next [ Day | 3-Days | 7-Days ]
First Last
Prev [ Day | 3-Days | 7-Days ] Next
First Last


123 => good data
MM => data is determined as missing
-- => data not received/configured
Back to Top Back to Top
12/22/2022 00:00 to 23:10 88.29 87.82 87.88 88.79 88.70 88.37
12/21/2022 23:00 to 22:10 88.11 87.82 87.74 87.90 87.84 87.57
12/21/2022 22:00 to 21:10 87.41 87.98 88.62 88.89 88.95 89.26
12/21/2022 21:00 to 20:10 89.65 90.31 90.45 90.20 90.49 90.68
12/21/2022 20:00 to 19:10 90.59 90.08 89.73 89.55 88.93 88.15
12/21/2022 19:00 to 18:10 88.03 88.44 88.70 88.72 88.60 89.01
12/21/2022 18:00 to 17:10 88.87 89.03 89.42 89.40 90.20 90.66
12/21/2022 17:00 to 16:10 91.09 90.96 90.14 89.18 89.11 88.81
12/21/2022 16:00 to 15:10 89.18 89.24 89.50 89.46 89.85 90.76
12/21/2022 15:00 to 14:10 91.15 91.25 91.97 92.11 92.22 92.75
12/21/2022 14:00 to 13:10 93.18 94.66 94.72 94.15 94.60 94.48
12/21/2022 13:00 to 12:10 94.35 94.25 93.96 94.37 93.92 93.29
12/21/2022 12:00 to 11:10 93.43 92.90 92.30 92.48 92.24 92.48
12/21/2022 11:00 to 10:10 92.75 92.79 92.87 93.35 93.68 93.86
12/21/2022 10:00 to 9:10 94.00 93.82 93.55 93.27 93.10 92.96
12/21/2022 09:00 to 8:10 92.69 92.65 92.40 92.36 92.01 92.36
12/21/2022 08:00 to 7:10 92.61 92.46 92.16 91.42 91.25 91.42
12/21/2022 07:00 to 6:10 91.48 91.64 91.99 92.24 92.01 91.70
12/21/2022 06:00 to 5:10 91.46 91.50 91.52 91.13 90.82 90.98
12/21/2022 05:00 to 4:10 90.22 89.96 90.14 90.06 90.37 89.98
12/21/2022 04:00 to 3:10 90.24 90.74 91.21 92.16 92.94 93.80
12/21/2022 03:00 to 2:10 94.85 96.00 97.40 98.42 99.49 99.88
12/21/2022 02:00 to 1:10 100.07 100.40 100.11 100.13 100.01 99.90
12/21/2022 01:00 to 0:10 100.09 100.46 100.25 100.07 99.82 99.57